createdAt,value
2022-10-11T00:00:57.866Z,8.41
2022-10-11T00:03:26.882Z,8.41
2022-10-11T00:05:56.829Z,8.40
2022-10-11T00:08:27.328Z,8.45
2022-10-11T00:11:04.452Z,8.47
2022-10-11T00:13:34.021Z,8.46
2022-10-11T00:16:10.825Z,8.35
2022-10-11T00:18:40.344Z,8.43
2022-10-11T00:21:13.941Z,8.38
2022-10-11T00:23:44.508Z,8.40
2022-10-11T00:26:15.198Z,8.45
2022-10-11T00:28:44.229Z,8.40
2022-10-11T00:31:16.609Z,8.44
2022-10-11T00:33:46.052Z,8.40
2022-10-11T00:36:17.050Z,8.38
2022-10-11T00:38:46.972Z,8.39
2022-10-11T00:41:18.258Z,8.37
2022-10-11T00:44:19.239Z,8.45
2022-10-11T00:47:04.531Z,8.42
2022-10-11T00:49:53.483Z,8.42
2022-10-11T00:52:41.882Z,8.49
2022-10-11T00:55:28.520Z,8.49
2022-10-11T00:58:26.507Z,8.44
2022-10-11T01:01:19.317Z,8.48
2022-10-11T01:04:00.502Z,8.42
2022-10-11T01:06:50.641Z,8.42
2022-10-11T01:09:31.381Z,8.38
2022-10-11T01:12:20.020Z,8.40
2022-10-11T01:15:18.706Z,8.34
2022-10-11T01:18:34.320Z,8.41
2022-10-11T01:21:32.166Z,8.40
2022-10-11T01:24:40.873Z,8.34
2022-10-11T01:27:49.799Z,8.28
2022-10-11T01:30:34.613Z,8.28
2022-10-11T01:33:31.409Z,8.30
2022-10-11T01:36:32.316Z,8.31
2022-10-11T01:39:32.816Z,8.29
2022-10-11T01:42:21.837Z,8.32
2022-10-11T01:45:02.635Z,8.24
2022-10-11T01:48:09.523Z,8.19
2022-10-11T01:51:03.627Z,8.28
2022-10-11T01:55:07.986Z,8.34
2022-10-11T01:58:27.767Z,8.27
2022-10-11T02:01:22.158Z,8.27
2022-10-11T02:04:13.539Z,8.23
2022-10-11T02:07:18.642Z,8.26
2022-10-11T02:10:08.253Z,8.14
2022-10-11T02:13:04.789Z,8.32
2022-10-11T02:15:47.875Z,8.36
2022-10-11T02:18:49.502Z,8.28
2022-10-11T02:21:35.108Z,8.22
2022-10-11T02:24:23.811Z,8.17
2022-10-11T02:27:07.598Z,8.08
2022-10-11T02:30:10.325Z,8.14
2022-10-11T02:32:55.747Z,8.15
2022-10-11T02:36:10.211Z,8.14
2022-10-11T02:38:59.406Z,8.03
2022-10-11T02:41:43.949Z,7.92
2022-10-11T02:44:33.616Z,8.01
2022-10-11T02:47:26.061Z,8.17
2022-10-11T02:50:15.069Z,8.14
2022-10-11T02:53:03.866Z,8.27
2022-10-11T02:55:55.191Z,8.21
2022-10-11T02:58:36.810Z,8.18
2022-10-11T03:01:28.819Z,8.16
2022-10-11T03:04:22.265Z,8.09
2022-10-11T03:07:23.949Z,8.03
2022-10-11T03:10:10.133Z,8.18
2022-10-11T03:12:52.232Z,8.15
2022-10-11T03:16:03.647Z,8.17
2022-10-11T03:18:44.917Z,8.14
2022-10-11T03:21:27.378Z,8.14
2022-10-11T03:24:07.576Z,8.14
2022-10-11T03:26:48.219Z,8.12
2022-10-11T03:29:44.208Z,8.14
2022-10-11T03:32:36.990Z,8.18
2022-10-11T03:35:18.546Z,8.18
2022-10-11T03:38:04.405Z,8.20
2022-10-11T03:40:52.883Z,8.20
2022-10-11T03:43:54.566Z,8.14
2022-10-11T03:46:42.440Z,8.12
2022-10-11T03:49:21.810Z,8.20
2022-10-11T03:52:21.568Z,8.20
2022-10-11T03:55:09.279Z,8.20
2022-10-11T03:58:18.102Z,8.20
2022-10-11T04:01:01.498Z,8.14
2022-10-11T04:03:44.919Z,8.17
2022-10-11T04:06:24.759Z,8.14
2022-10-11T04:09:05.148Z,8.19
2022-10-11T04:11:45.758Z,8.27
2022-10-11T04:14:27.541Z,8.18
2022-10-11T04:17:11.956Z,8.10
2022-10-11T04:20:00.624Z,8.16
2022-10-11T04:22:52.688Z,8.14
2022-10-11T04:25:52.506Z,8.18
2022-10-11T04:28:35.562Z,8.22
2022-10-11T04:31:16.964Z,8.17
2022-10-11T04:33:58.777Z,8.08
2022-10-11T04:36:43.581Z,8.10
2022-10-11T04:39:27.930Z,8.20
2022-10-11T04:42:13.667Z,8.13
2022-10-11T04:44:53.724Z,8.19
2022-10-11T04:47:35.711Z,8.14
2022-10-11T04:50:16.234Z,8.08
2022-10-11T04:53:02.012Z,8.14
2022-10-11T04:55:42.716Z,7.94
2022-10-11T04:58:35.903Z,8.05
2022-10-11T05:01:16.900Z,8.07
2022-10-11T05:03:59.242Z,8.03
2022-10-11T05:06:53.304Z,8.10
2022-10-11T05:09:34.662Z,8.01
2022-10-11T05:12:16.420Z,8.05
2022-10-11T05:14:57.863Z,8.06
2022-10-11T05:17:39.601Z,8.00
2022-10-11T05:20:20.593Z,8.01
2022-10-11T05:23:00.650Z,8.08
2022-10-11T05:25:49.807Z,8.28
2022-10-11T05:28:34.135Z,8.28
2022-10-11T05:31:16.097Z,8.36
2022-10-11T05:33:57.530Z,8.26
2022-10-11T05:36:38.589Z,8.26
2022-10-11T05:39:24.262Z,8.29
2022-10-11T05:42:10.013Z,8.25
2022-10-11T05:45:00.295Z,8.11
2022-10-11T05:47:40.565Z,8.20
2022-10-11T05:50:24.174Z,8.21
2022-10-11T05:53:07.333Z,8.26
2022-10-11T05:55:54.319Z,8.23
2022-10-11T05:58:36.024Z,8.22
2022-10-11T06:01:21.190Z,8.27
2022-10-11T06:04:01.680Z,8.36
2022-10-11T06:06:47.165Z,8.59
2022-10-11T06:09:31.198Z,8.69
2022-10-11T06:12:12.159Z,8.77
2022-10-11T06:15:12.916Z,8.87
2022-10-11T06:17:54.789Z,8.92
2022-10-11T06:20:34.187Z,8.90
2022-10-11T06:23:41.209Z,8.94
2022-10-11T06:26:21.677Z,8.99
2022-10-11T06:29:19.643Z,9.06
2022-10-11T06:32:18.445Z,9.02
2022-10-11T06:34:58.758Z,9.00
2022-10-11T06:37:57.208Z,8.98
2022-10-11T06:40:40.140Z,8.93
2022-10-11T06:43:20.858Z,8.90
2022-10-11T06:46:15.608Z,9.04
2022-10-11T06:48:56.639Z,9.03
2022-10-11T06:51:35.961Z,9.03
2022-10-11T06:54:16.072Z,9.03
2022-10-11T06:57:30.194Z,8.97
2022-10-11T07:00:13.160Z,8.99
2022-10-11T07:02:53.683Z,9.09
2022-10-11T07:05:34.844Z,9.01
2022-10-11T07:08:14.787Z,9.08
2022-10-11T07:10:54.624Z,9.10
2022-10-11T07:13:34.556Z,9.15
2022-10-11T07:17:10.302Z,9.19
2022-10-11T07:20:12.966Z,9.23
2022-10-11T07:23:07.374Z,9.30
2022-10-11T07:25:47.503Z,9.31
2022-10-11T07:28:30.697Z,9.36
2022-10-11T07:31:15.483Z,9.27
2022-10-11T07:33:55.891Z,9.09
2022-10-11T07:36:35.281Z,9.10
2022-10-11T07:39:42.216Z,9.08
2022-10-11T07:42:39.268Z,8.91
2022-10-11T07:45:19.671Z,8.65
2022-10-11T07:48:18.108Z,8.70
2022-10-11T07:51:06.780Z,8.77
2022-10-11T07:54:07.434Z,8.73
2022-10-11T07:57:03.427Z,8.68
2022-10-11T07:59:49.322Z,8.64
2022-10-11T08:02:30.472Z,8.66
2022-10-11T08:05:34.054Z,8.65
2022-10-11T08:08:13.941Z,8.68
2022-10-11T08:10:53.692Z,8.73
2022-10-11T08:13:59.249Z,8.85
2022-10-11T08:16:40.394Z,8.82
2022-10-11T08:19:42.247Z,8.86
2022-10-11T08:22:49.903Z,8.77
2022-10-11T08:25:32.571Z,8.84
2022-10-11T08:28:27.785Z,8.85
2022-10-11T08:31:17.962Z,8.92
2022-10-11T08:33:57.861Z,8.84
2022-10-11T08:36:37.895Z,8.87
2022-10-11T08:39:18.278Z,8.93
2022-10-11T08:42:04.173Z,8.92
2022-10-11T08:45:36.214Z,9.03
2022-10-11T08:48:21.167Z,9.12
2022-10-11T08:51:06.679Z,9.17
2022-10-11T08:53:54.680Z,9.15
2022-10-11T08:56:40.048Z,9.09
2022-10-11T08:59:40.225Z,9.15
2022-10-11T09:03:03.074Z,9.28
2022-10-11T09:06:03.652Z,9.27
2022-10-11T09:09:19.427Z,9.28
2022-10-11T09:12:19.533Z,9.38
2022-10-11T09:15:16.923Z,9.46
2022-10-11T09:18:44.218Z,9.54
2022-10-11T09:21:39.376Z,9.63
2022-10-11T09:24:40.623Z,9.63
2022-10-11T09:27:57.231Z,9.70
2022-10-11T09:30:33.138Z,9.77
2022-10-11T09:43:38.790Z,10.24
2022-10-11T09:46:23.845Z,10.36
2022-10-11T09:48:54.677Z,10.37
2022-10-11T09:51:26.670Z,10.49
2022-10-11T09:53:59.319Z,10.55
2022-10-11T09:56:30.860Z,10.62
2022-10-11T09:59:29.577Z,10.68
2022-10-11T10:02:22.766Z,10.80
2022-10-11T10:05:15.415Z,10.84
2022-10-11T10:08:16.045Z,10.92
2022-10-11T10:10:48.882Z,11.12
2022-10-11T10:13:23.753Z,11.34
2022-10-11T10:15:59.256Z,11.37
2022-10-11T10:18:36.006Z,11.46
2022-10-11T10:21:09.877Z,11.57
2022-10-11T10:23:40.225Z,11.66
2022-10-11T10:26:18.806Z,11.77
2022-10-11T10:29:05.245Z,11.82
2022-10-11T10:32:08.817Z,11.93
2022-10-11T10:34:34.532Z,11.92
2022-10-11T10:37:10.313Z,11.96
2022-10-11T10:39:46.953Z,12.06
2022-10-11T10:42:18.705Z,12.16
2022-10-11T10:44:53.709Z,12.15
2022-10-11T10:47:50.684Z,12.20
2022-10-11T10:50:28.498Z,12.25
2022-10-11T10:53:12.980Z,12.36
2022-10-11T10:55:46.375Z,12.39
2022-10-11T10:58:34.021Z,12.53
2022-10-11T11:01:15.845Z,12.60
2022-10-11T11:03:54.838Z,12.67
2022-10-11T11:06:37.444Z,12.75
2022-10-11T11:09:27.507Z,12.83
2022-10-11T11:12:15.888Z,12.88
2022-10-11T11:14:57.691Z,12.97
2022-10-11T11:17:42.823Z,13.00
2022-10-11T11:20:40.350Z,13.13
2022-10-11T11:23:21.874Z,13.21
2022-10-11T11:26:02.735Z,13.34
2022-10-11T11:28:54.812Z,13.43
2022-10-11T11:31:56.153Z,13.45
2022-10-11T11:34:30.197Z,13.57
2022-10-11T11:37:07.568Z,13.50
2022-10-11T11:39:46.315Z,13.42
2022-10-11T11:42:24.495Z,13.36
2022-10-11T11:44:56.458Z,13.24
2022-10-11T11:47:35.273Z,13.27
2022-10-11T11:50:22.532Z,13.27
2022-10-11T11:52:59.086Z,13.26
2022-10-11T11:55:42.871Z,13.31
2022-10-11T11:58:35.732Z,13.34
2022-10-11T12:01:22.564Z,13.41
2022-10-11T12:03:56.960Z,13.35
2022-10-11T12:06:32.293Z,13.39
2022-10-11T12:09:07.738Z,13.41
2022-10-11T12:11:52.261Z,13.37
2022-10-11T12:14:39.379Z,13.48
2022-10-11T12:17:23.758Z,13.49
2022-10-11T12:20:15.804Z,13.52
2022-10-11T12:23:00.291Z,13.53
2022-10-11T12:25:44.529Z,13.59
2022-10-11T12:28:49.698Z,13.58
2022-10-11T12:31:24.179Z,13.62
2022-10-11T12:34:21.292Z,13.68
2022-10-11T12:36:52.161Z,13.68
2022-10-11T12:39:53.720Z,13.74
2022-10-11T12:42:30.037Z,13.74
2022-10-11T12:45:32.578Z,13.72
2022-10-11T12:48:28.681Z,13.71
2022-10-11T12:51:25.671Z,13.66
2022-10-11T12:54:36.982Z,13.62
2022-10-11T12:57:48.683Z,13.62
2022-10-11T13:00:29.365Z,13.64
2022-10-11T13:03:06.482Z,13.62
2022-10-11T13:05:49.702Z,13.66
2022-10-11T13:08:29.270Z,13.62
2022-10-11T13:11:05.752Z,13.65
2022-10-11T13:13:42.337Z,13.64
2022-10-11T13:16:22.314Z,13.65
2022-10-11T13:18:57.370Z,13.65
2022-10-11T13:21:38.684Z,13.60
2022-10-11T13:24:17.534Z,13.62
2022-10-11T13:26:49.142Z,13.62
2022-10-11T13:29:30.214Z,13.60
2022-10-11T13:31:59.837Z,13.65
2022-10-11T13:34:35.032Z,13.65
2022-10-11T13:37:05.616Z,13.66
2022-10-11T13:39:39.263Z,13.64
2022-10-11T13:42:19.165Z,13.60
2022-10-11T13:44:50.143Z,13.60
2022-10-11T13:47:24.121Z,13.62
2022-10-11T13:50:11.026Z,13.56
2022-10-11T13:52:56.109Z,13.54
2022-10-11T13:55:31.861Z,13.51
2022-10-11T13:58:03.544Z,13.45
2022-10-11T14:00:39.716Z,13.43
2022-10-11T14:03:20.302Z,13.41
2022-10-11T14:05:57.383Z,13.40
2022-10-11T14:08:37.023Z,13.39
2022-10-11T14:11:08.827Z,13.33
2022-10-11T14:13:43.691Z,13.24
2022-10-11T14:16:31.899Z,13.18
2022-10-11T14:19:12.216Z,13.07
2022-10-11T14:21:52.876Z,12.84
2022-10-11T14:24:24.274Z,12.78
2022-10-11T14:26:56.089Z,12.71
2022-10-11T14:29:29.556Z,12.58
2022-10-11T14:32:06.280Z,12.44
2022-10-11T14:34:37.831Z,12.35
2022-10-11T14:37:07.769Z,12.29
2022-10-11T14:39:36.935Z,12.29
2022-10-11T14:42:06.197Z,12.16
2022-10-11T14:44:35.036Z,12.12
2022-10-11T14:47:06.821Z,12.04
2022-10-11T14:49:39.716Z,12.06
2022-10-11T14:52:12.023Z,12.02
2022-10-11T14:54:41.970Z,11.98
2022-10-11T14:57:13.986Z,11.93
2022-10-11T14:59:44.224Z,11.85
2022-10-11T15:02:14.744Z,11.73
2022-10-11T15:04:43.403Z,11.68
2022-10-11T15:07:14.530Z,11.62
2022-10-11T15:09:43.257Z,11.62
2022-10-11T15:12:12.164Z,11.51
2022-10-11T15:14:40.950Z,11.50
2022-10-11T15:17:13.836Z,11.41
2022-10-11T15:19:42.784Z,11.38
2022-10-11T15:22:11.432Z,11.38
2022-10-11T15:24:40.518Z,11.44
2022-10-11T15:27:10.513Z,11.46
2022-10-11T15:29:39.550Z,11.40
2022-10-11T15:32:09.238Z,11.47
2022-10-11T15:34:39.663Z,11.33
2022-10-11T15:37:08.963Z,11.36
2022-10-11T15:39:38.027Z,11.38
2022-10-11T15:42:08.206Z,11.27
2022-10-11T15:44:38.195Z,11.29
2022-10-11T15:47:07.616Z,11.31
2022-10-11T15:49:38.781Z,11.29
2022-10-11T15:52:07.903Z,11.24
2022-10-11T15:54:36.636Z,11.27
2022-10-11T15:57:08.094Z,11.26
2022-10-11T15:59:38.670Z,11.28
2022-10-11T16:02:08.226Z,11.24
2022-10-11T16:04:39.461Z,11.20
2022-10-11T16:07:08.847Z,11.20
2022-10-11T16:09:38.145Z,11.20
2022-10-11T16:12:08.077Z,11.14
2022-10-11T16:14:37.329Z,11.23
2022-10-11T16:17:06.307Z,11.21
2022-10-11T16:19:35.480Z,11.14
2022-10-11T16:22:08.150Z,11.14
2022-10-11T16:24:37.385Z,11.15
2022-10-11T16:27:06.602Z,11.11
2022-10-11T16:29:35.657Z,11.06
2022-10-11T16:32:04.999Z,10.96
2022-10-11T16:34:35.486Z,11.01
2022-10-11T16:37:09.788Z,10.92
2022-10-11T16:39:41.150Z,10.94
2022-10-11T16:42:14.269Z,10.83
2022-10-11T16:44:43.902Z,10.78
2022-10-11T16:47:13.789Z,10.85
2022-10-11T16:49:43.188Z,10.74
2022-10-11T16:52:15.736Z,10.76
2022-10-11T16:54:46.386Z,10.80
2022-10-11T16:57:19.143Z,10.73
2022-10-11T16:59:49.080Z,10.71
2022-10-11T17:02:21.984Z,10.72
2022-10-11T17:04:54.179Z,10.73
2022-10-11T17:07:25.471Z,10.69
2022-10-11T17:09:54.897Z,10.72
2022-10-11T17:12:26.193Z,10.64
2022-10-11T17:14:55.831Z,10.58
2022-10-11T17:17:28.327Z,10.67
2022-10-11T17:20:02.411Z,10.65
2022-10-11T17:22:38.007Z,10.67
2022-10-11T17:25:08.824Z,10.57
2022-10-11T17:27:38.854Z,10.64
2022-10-11T17:30:10.539Z,10.59
2022-10-11T17:32:40.100Z,10.65
2022-10-11T17:35:10.222Z,10.64
2022-10-11T17:37:41.026Z,10.61
2022-10-11T17:40:12.309Z,10.55
2022-10-11T17:42:41.810Z,10.52
2022-10-11T17:45:13.906Z,10.57
2022-10-11T17:47:43.624Z,10.57
2022-10-11T17:50:13.369Z,10.61
2022-10-11T17:52:44.283Z,10.58
2022-10-11T17:55:14.843Z,10.61
2022-10-11T17:57:47.096Z,10.66
2022-10-11T18:00:18.478Z,10.61
2022-10-11T18:02:50.480Z,10.59
2022-10-11T18:05:23.003Z,10.61
2022-10-11T18:08:04.386Z,10.57
2022-10-11T18:10:35.611Z,10.58
2022-10-11T18:13:07.471Z,10.59
2022-10-11T18:15:41.237Z,10.59
2022-10-11T18:18:12.048Z,10.52
2022-10-11T18:20:49.109Z,10.58
2022-10-11T18:23:34.117Z,10.61
2022-10-11T18:26:14.736Z,10.53
2022-10-11T18:28:45.774Z,10.54
2022-10-11T18:34:08.630Z,10.60
2022-10-11T18:36:42.406Z,10.52
2022-10-11T18:39:17.881Z,10.58
2022-10-11T18:42:05.673Z,10.58
2022-10-11T18:44:35.500Z,10.62
2022-10-11T18:47:05.754Z,10.59
2022-10-11T18:49:38.653Z,10.58
2022-10-11T18:52:10.261Z,10.57
2022-10-11T18:54:43.713Z,10.52
2022-10-11T18:57:13.211Z,10.55
2022-10-11T18:59:42.658Z,10.54
2022-10-11T19:02:13.542Z,10.57
2022-10-11T19:04:42.931Z,10.54
2022-10-11T19:07:12.534Z,10.53
2022-10-11T19:09:44.791Z,10.51
2022-10-11T19:12:15.335Z,10.57
2022-10-11T19:14:47.147Z,10.53
2022-10-11T19:17:17.212Z,10.48
2022-10-11T19:19:46.829Z,10.45
2022-10-11T19:22:22.707Z,10.49
2022-10-11T19:24:57.222Z,10.42
2022-10-11T19:27:27.073Z,10.42
2022-10-11T19:29:56.512Z,10.40
2022-10-11T19:32:26.308Z,10.36
2022-10-11T19:34:55.565Z,10.32
2022-10-11T19:37:26.646Z,10.22
2022-10-11T19:39:57.795Z,10.12
2022-10-11T19:42:27.391Z,10.13
2022-10-11T19:44:58.276Z,10.17
2022-10-11T19:47:27.629Z,10.26
2022-10-11T19:50:01.055Z,10.28
2022-10-11T19:52:32.220Z,10.32
2022-10-11T19:55:03.144Z,10.35
2022-10-11T19:57:35.480Z,10.40
2022-10-11T20:00:05.223Z,10.40
2022-10-11T20:02:35.447Z,10.35
2022-10-11T20:05:08.475Z,10.28
2022-10-11T20:07:38.012Z,10.24
2022-10-11T20:10:14.115Z,10.22
2022-10-11T20:12:46.070Z,10.22
2022-10-11T20:15:17.329Z,10.21
2022-10-11T20:17:49.573Z,10.15
2022-10-11T20:21:12.228Z,10.17
2022-10-11T20:23:43.944Z,10.21
2022-10-11T20:26:17.808Z,10.20
2022-10-11T20:28:47.116Z,10.21
2022-10-11T20:31:19.696Z,10.19
2022-10-11T20:33:50.774Z,10.16
2022-10-11T20:36:23.614Z,10.17
2022-10-11T20:38:53.460Z,10.13
2022-10-11T20:41:27.810Z,10.06
2022-10-11T20:44:02.215Z,9.99
2022-10-11T20:46:33.762Z,9.92
2022-10-11T20:49:06.350Z,9.82
2022-10-11T20:51:38.293Z,9.73
2022-10-11T20:54:09.468Z,9.63
2022-10-11T20:56:40.556Z,9.59
2022-10-11T20:59:09.770Z,9.47
2022-10-11T21:01:41.429Z,9.38
2022-10-11T21:04:17.915Z,9.36
2022-10-11T21:06:47.544Z,9.28
2022-10-11T21:09:17.411Z,9.24
2022-10-11T21:11:47.767Z,9.19
2022-10-11T21:14:16.816Z,9.10
2022-10-11T21:16:45.628Z,9.07
2022-10-11T21:19:16.573Z,9.03
2022-10-11T21:21:52.547Z,8.98
2022-10-11T21:24:22.808Z,8.93
2022-10-11T21:27:00.279Z,8.87
2022-10-11T21:29:30.723Z,8.80
2022-10-11T21:31:59.443Z,8.77
2022-10-11T21:34:28.061Z,8.73
2022-10-11T21:36:56.884Z,8.71
2022-10-11T21:39:25.606Z,8.61
2022-10-11T21:41:55.613Z,8.61
2022-10-11T21:44:24.395Z,8.57
2022-10-11T21:47:08.450Z,8.55
2022-10-11T21:49:37.364Z,8.56
2022-10-11T21:52:06.661Z,8.56
2022-10-11T21:54:35.305Z,8.53
2022-10-11T21:57:05.721Z,8.45
2022-10-11T21:59:34.415Z,8.39
2022-10-11T22:02:05.370Z,8.38
2022-10-11T22:04:35.481Z,8.31
2022-10-11T22:07:07.511Z,8.36
2022-10-11T22:09:36.200Z,8.33
2022-10-11T22:12:07.498Z,8.24
2022-10-11T22:14:36.465Z,8.22
2022-10-11T22:17:05.675Z,8.23
2022-10-11T22:19:34.331Z,8.13
2022-10-11T22:22:03.034Z,8.15
2022-10-11T22:27:29.011Z,8.20
2022-10-11T22:29:57.738Z,8.17
2022-10-11T22:32:26.456Z,8.14
2022-10-11T22:34:55.348Z,8.20
2022-10-11T22:37:24.989Z,8.24
2022-10-11T22:39:55.278Z,8.26
2022-10-11T22:42:27.698Z,8.34
2022-10-11T22:44:56.756Z,8.26
2022-10-11T22:47:25.745Z,8.35
2022-10-11T22:49:54.583Z,8.36
2022-10-11T22:52:23.287Z,8.43
2022-10-11T22:54:52.041Z,8.43
2022-10-11T22:57:20.646Z,8.50
2022-10-11T22:59:52.001Z,8.61
2022-10-11T23:02:24.250Z,8.63
2022-10-11T23:04:54.274Z,8.74
2022-10-11T23:07:23.042Z,8.87
2022-10-11T23:09:51.760Z,8.89
2022-10-11T23:12:20.560Z,9.01
2022-10-11T23:14:49.282Z,9.05
2022-10-11T23:17:19.519Z,9.10
2022-10-11T23:19:48.250Z,9.16
2022-10-11T23:22:17.278Z,9.10
2022-10-11T23:24:46.152Z,9.17
2022-10-11T23:27:14.974Z,9.10
2022-10-11T23:29:43.742Z,9.15
2022-10-11T23:32:13.038Z,9.17
2022-10-11T23:34:43.137Z,9.13
2022-10-11T23:37:12.116Z,9.07
2022-10-11T23:39:40.809Z,9.12
2022-10-11T23:42:11.495Z,9.08
2022-10-11T23:44:44.632Z,9.12
2022-10-11T23:47:13.970Z,9.10
2022-10-11T23:49:45.861Z,9.07
2022-10-11T23:52:14.890Z,9.10
2022-10-11T23:54:45.330Z,9.02
2022-10-11T23:57:14.583Z,9.06
2022-10-11T23:59:50.426Z,9.05
